createdAt,value
2017-05-24T00:01:24.276Z,2.25
2017-05-24T00:03:53.458Z,1.93
2017-05-24T00:06:21.745Z,2.23
2017-05-24T00:08:50.065Z,2.23
2017-05-24T00:11:19.073Z,2.48
2017-05-24T00:13:47.370Z,2.93
2017-05-24T00:16:15.671Z,2.08
2017-05-24T00:18:45.241Z,2.43
2017-05-24T00:21:13.534Z,2.40
2017-05-24T00:23:41.865Z,2.38
2017-05-24T00:26:10.401Z,2.77
2017-05-24T00:28:38.697Z,2.82
2017-05-24T00:31:06.977Z,3.13
2017-05-24T00:33:35.522Z,2.37
2017-05-24T00:36:03.807Z,1.92
2017-05-24T00:38:32.112Z,2.67
2017-05-24T00:40:59.721Z,2.17
2017-05-24T00:43:28.014Z,2.15
2017-05-24T00:45:56.309Z,2.60
2017-05-24T00:48:24.621Z,2.22
2017-05-24T00:50:52.913Z,2.67
2017-05-24T00:53:21.231Z,3.10
2017-05-24T00:55:49.518Z,3.32
2017-05-24T00:58:17.792Z,3.28
2017-05-24T01:00:46.109Z,2.97
2017-05-24T01:03:14.413Z,3.00
2017-05-24T01:05:42.746Z,2.78
2017-05-24T01:08:11.065Z,2.28
2017-05-24T01:10:39.345Z,2.62
2017-05-24T01:13:07.665Z,2.67
2017-05-24T01:15:36.731Z,2.83
2017-05-24T01:18:05.023Z,2.67
2017-05-24T01:20:33.365Z,2.40
2017-05-24T01:23:01.664Z,2.42
2017-05-24T01:25:29.951Z,3.42
2017-05-24T01:27:58.274Z,3.18
2017-05-24T01:30:26.558Z,2.82
2017-05-24T01:32:54.878Z,3.10
2017-05-24T01:35:23.157Z,2.45
2017-05-24T01:37:51.450Z,3.03
2017-05-24T01:40:20.028Z,3.50
2017-05-24T01:42:48.314Z,2.93
2017-05-24T01:45:16.643Z,3.22
2017-05-24T01:47:45.404Z,3.93
2017-05-24T01:50:13.710Z,2.83
2017-05-24T01:52:41.997Z,3.47
2017-05-24T01:55:10.320Z,3.07
2017-05-24T01:57:38.587Z,3.18
2017-05-24T02:00:06.864Z,3.45
2017-05-24T02:02:36.243Z,3.37
2017-05-24T02:05:04.619Z,2.98
2017-05-24T02:07:33.008Z,3.13
2017-05-24T02:10:01.391Z,3.12
2017-05-24T02:12:29.759Z,2.80
2017-05-24T02:14:58.142Z,2.60
2017-05-24T02:17:26.422Z,2.63
2017-05-24T02:19:54.802Z,2.38
2017-05-24T02:22:23.171Z,2.45
2017-05-24T02:24:51.455Z,2.50
2017-05-24T02:27:19.811Z,2.43
2017-05-24T02:29:48.128Z,2.38
2017-05-24T02:32:16.395Z,2.93
2017-05-24T02:34:44.759Z,2.12
2017-05-24T02:37:13.144Z,2.25
2017-05-24T02:39:41.520Z,2.20
2017-05-24T02:42:10.000Z,2.53
2017-05-24T02:44:38.381Z,2.08
2017-05-24T02:47:06.655Z,2.08
2017-05-24T02:49:34.967Z,1.63
2017-05-24T02:52:03.239Z,1.75
2017-05-24T02:54:31.591Z,2.12
2017-05-24T02:56:59.971Z,2.28
2017-05-24T02:59:28.451Z,2.23
2017-05-24T03:01:56.752Z,2.42
2017-05-24T03:04:25.061Z,2.30
2017-05-24T03:06:53.336Z,2.18
2017-05-24T03:09:21.747Z,1.78
2017-05-24T03:11:50.340Z,2.02
2017-05-24T03:14:18.628Z,1.73
2017-05-24T03:16:46.899Z,2.12
2017-05-24T03:19:15.204Z,1.90
2017-05-24T03:21:43.471Z,2.15
2017-05-24T03:24:12.964Z,1.50
2017-05-24T03:26:41.235Z,2.22
2017-05-24T03:29:09.503Z,2.10
2017-05-24T03:31:37.814Z,3.28
2017-05-24T03:34:06.167Z,2.93
2017-05-24T03:36:34.437Z,2.48
2017-05-24T03:39:02.756Z,1.88
2017-05-24T03:41:31.100Z,1.93
2017-05-24T03:43:59.371Z,2.10
2017-05-24T03:46:27.672Z,2.08
2017-05-24T03:48:56.141Z,2.48
2017-05-24T03:51:24.515Z,2.17
2017-05-24T03:53:52.900Z,2.33
2017-05-24T03:56:21.249Z,2.32
2017-05-24T03:58:49.556Z,2.17
2017-05-24T04:01:17.879Z,2.17
2017-05-24T04:03:46.360Z,2.13
2017-05-24T04:06:14.632Z,3.08
2017-05-24T04:08:42.913Z,2.80
2017-05-24T04:11:11.292Z,2.68
2017-05-24T04:13:39.568Z,3.08
2017-05-24T04:16:07.841Z,2.90
2017-05-24T04:18:36.317Z,2.45
2017-05-24T04:21:04.587Z,2.68
2017-05-24T04:23:32.884Z,2.40
2017-05-24T04:26:01.183Z,2.93
2017-05-24T04:28:29.544Z,2.25
2017-05-24T04:30:57.917Z,2.45
2017-05-24T04:33:26.600Z,2.65
2017-05-24T04:35:55.802Z,3.32
2017-05-24T04:38:24.106Z,3.45
2017-05-24T04:40:52.453Z,3.32
2017-05-24T04:43:20.757Z,2.80
2017-05-24T04:45:50.002Z,3.43
2017-05-24T04:48:18.343Z,3.40
2017-05-24T04:50:46.619Z,2.93
2017-05-24T04:53:15.023Z,3.08
2017-05-24T04:55:43.396Z,3.17
2017-05-24T04:58:11.669Z,3.47
2017-05-24T05:00:39.943Z,2.97
2017-05-24T05:03:08.325Z,3.35
2017-05-24T05:05:36.604Z,3.85
2017-05-24T05:08:04.981Z,3.68
2017-05-24T05:10:33.288Z,4.37
2017-05-24T05:13:01.564Z,3.32
2017-05-24T05:15:29.865Z,2.93
2017-05-24T05:17:58.219Z,3.50
2017-05-24T05:20:26.596Z,3.27
2017-05-24T05:22:54.976Z,3.33
2017-05-24T05:25:23.356Z,3.82
2017-05-24T05:27:51.636Z,3.27
2017-05-24T05:30:20.012Z,3.17
2017-05-24T05:32:48.397Z,3.40
2017-05-24T05:35:16.904Z,3.65
2017-05-24T05:37:45.179Z,4.50
2017-05-24T05:40:13.455Z,4.50
2017-05-24T05:42:41.836Z,4.05
2017-05-24T05:45:10.112Z,4.48
2017-05-24T05:47:38.500Z,4.78
2017-05-24T05:50:06.884Z,3.45
2017-05-24T05:52:35.164Z,4.58
2017-05-24T05:55:03.527Z,3.68
2017-05-24T05:57:32.114Z,4.35
2017-05-24T06:00:00.883Z,5.35
2017-05-24T06:02:29.256Z,4.33
2017-05-24T06:04:57.581Z,4.38
2017-05-24T06:07:25.916Z,4.62
2017-05-24T06:09:54.194Z,4.70
2017-05-24T06:12:22.570Z,4.95
2017-05-24T06:14:50.848Z,4.57
2017-05-24T06:17:19.123Z,4.32
2017-05-24T06:19:47.500Z,5.08
2017-05-24T06:22:15.819Z,5.08
2017-05-24T06:24:44.272Z,4.25
2017-05-24T06:27:12.643Z,4.40
2017-05-24T06:29:41.128Z,4.38
2017-05-24T06:32:09.460Z,4.20
2017-05-24T06:34:37.838Z,4.23
2017-05-24T06:37:06.124Z,4.73
2017-05-24T06:39:34.455Z,5.72
2017-05-24T06:42:02.780Z,6.20
2017-05-24T06:44:31.151Z,5.22
2017-05-24T06:46:59.537Z,4.83
2017-05-24T06:49:27.855Z,4.93
2017-05-24T06:51:56.132Z,5.60
2017-05-24T06:54:24.568Z,6.70
2017-05-24T06:56:52.944Z,5.13
2017-05-24T06:59:21.324Z,5.42
2017-05-24T07:01:49.707Z,5.96
2017-05-24T07:04:18.021Z,4.72
2017-05-24T07:06:46.311Z,4.87
2017-05-24T07:09:14.736Z,5.32
2017-05-24T07:11:43.115Z,5.68
2017-05-24T07:14:11.500Z,6.02
2017-05-24T07:16:39.807Z,6.77
2017-05-24T07:19:08.255Z,6.70
2017-05-24T07:21:36.540Z,7.50
2017-05-24T07:24:04.856Z,8.04
2017-05-24T07:26:33.190Z,7.28
2017-05-24T07:29:01.472Z,7.48
2017-05-24T07:31:30.003Z,8.10
2017-05-24T07:33:58.280Z,7.92
2017-05-24T07:36:26.568Z,8.80
2017-05-24T07:38:54.900Z,7.57
2017-05-24T07:41:23.263Z,7.88
2017-05-24T07:43:51.536Z,6.80
2017-05-24T07:46:19.975Z,7.20
2017-05-24T07:48:48.291Z,8.02
2017-05-24T07:51:16.683Z,6.94
2017-05-24T07:53:45.016Z,6.88
2017-05-24T07:56:13.333Z,7.80
2017-05-24T07:58:41.618Z,7.30
2017-05-24T08:01:09.931Z,7.78
2017-05-24T08:03:38.204Z,6.24
2017-05-24T08:06:06.513Z,7.56
2017-05-24T08:08:34.820Z,7.62
2017-05-24T08:11:03.102Z,8.02
2017-05-24T08:13:31.474Z,8.18
2017-05-24T08:15:59.804Z,8.02
2017-05-24T08:18:28.133Z,9.56
2017-05-24T08:20:56.513Z,10.58
2017-05-24T08:23:24.842Z,9.76
2017-05-24T08:25:53.169Z,9.06
2017-05-24T08:28:21.456Z,8.80
2017-05-24T08:30:50.134Z,11.18
2017-05-24T08:33:18.509Z,10.02
2017-05-24T08:35:46.883Z,11.08
2017-05-24T08:38:15.192Z,12.18
2017-05-24T08:40:43.476Z,12.54
2017-05-24T08:43:11.780Z,11.62
2017-05-24T08:45:40.201Z,12.58
2017-05-24T08:48:08.532Z,11.98
2017-05-24T08:50:36.856Z,11.86
2017-05-24T08:53:05.244Z,11.80
2017-05-24T08:55:33.560Z,11.08
2017-05-24T08:58:01.888Z,11.60
2017-05-24T09:00:30.169Z,17.38
2017-05-24T09:02:58.452Z,15.14
2017-05-24T09:05:26.771Z,16.32
2017-05-24T09:07:55.079Z,17.14
2017-05-24T09:10:23.359Z,15.78
2017-05-24T09:12:51.689Z,14.98
2017-05-24T09:15:20.040Z,15.40
2017-05-24T09:17:48.327Z,18.60
2017-05-24T09:20:16.995Z,16.08
2017-05-24T09:22:45.281Z,13.16
2017-05-24T09:25:13.652Z,13.28
2017-05-24T09:27:41.984Z,15.34
2017-05-24T09:30:10.316Z,15.82
2017-05-24T09:32:38.687Z,15.80
2017-05-24T09:35:06.997Z,12.44
2017-05-24T09:37:35.344Z,13.72
2017-05-24T09:40:03.725Z,13.32
2017-05-24T09:42:32.103Z,13.48
2017-05-24T09:44:59.765Z,14.06
2017-05-24T09:47:28.075Z,11.86
2017-05-24T09:49:56.420Z,10.24
2017-05-24T09:52:24.912Z,11.36
2017-05-24T09:54:53.279Z,13.08
2017-05-24T09:57:21.661Z,13.32
2017-05-24T09:59:50.044Z,12.50
2017-05-24T10:02:18.364Z,14.58
2017-05-24T10:04:46.695Z,14.90
2017-05-24T10:07:15.176Z,13.54
2017-05-24T10:09:43.460Z,12.20
2017-05-24T10:12:11.745Z,12.84
2017-05-24T10:14:40.131Z,13.62
2017-05-24T10:17:08.487Z,14.30
2017-05-24T10:19:36.781Z,12.14
2017-05-24T10:22:05.348Z,14.78
2017-05-24T10:24:33.735Z,13.24
2017-05-24T10:27:02.011Z,9.86
2017-05-24T10:29:30.444Z,12.08
2017-05-24T10:31:58.732Z,11.06
2017-05-24T10:34:27.016Z,12.44
2017-05-24T10:36:55.343Z,11.04
2017-05-24T10:39:23.631Z,12.32
2017-05-24T10:41:57.701Z,11.08
2017-05-24T10:44:25.996Z,12.72
2017-05-24T10:46:54.284Z,12.18
2017-05-24T10:49:22.616Z,12.32
2017-05-24T10:51:50.899Z,14.04
2017-05-24T10:54:19.185Z,11.98
2017-05-24T10:56:47.536Z,12.68
2017-05-24T10:59:15.907Z,11.70
2017-05-24T11:01:44.354Z,10.28
2017-05-24T11:04:12.639Z,11.62
2017-05-24T11:06:40.930Z,11.50
2017-05-24T11:09:09.323Z,12.48
2017-05-24T11:11:37.647Z,12.20
2017-05-24T11:14:05.927Z,13.10
2017-05-24T11:16:34.204Z,15.40
2017-05-24T11:19:02.516Z,13.60
2017-05-24T11:21:30.814Z,16.48
2017-05-24T11:23:59.337Z,15.60
2017-05-24T11:26:27.638Z,16.92
2017-05-24T11:28:55.925Z,15.02
2017-05-24T11:31:24.429Z,15.44
2017-05-24T11:33:52.757Z,16.70
2017-05-24T11:36:21.081Z,16.78
2017-05-24T11:38:49.416Z,16.20
2017-05-24T11:41:17.727Z,14.50
2017-05-24T11:43:46.025Z,16.98
2017-05-24T11:46:14.344Z,14.52
2017-05-24T11:48:42.689Z,15.00
2017-05-24T11:51:10.988Z,15.98
2017-05-24T11:53:38.512Z,14.38
2017-05-24T11:56:06.833Z,13.24
2017-05-24T11:58:35.164Z,14.32
2017-05-24T12:01:03.488Z,14.48
2017-05-24T12:03:31.785Z,14.64
2017-05-24T12:06:00.119Z,14.16
2017-05-24T12:08:28.432Z,14.34
2017-05-24T12:10:56.733Z,15.40
2017-05-24T12:13:25.061Z,17.52
2017-05-24T12:15:53.348Z,15.34
2017-05-24T12:18:21.680Z,15.66
2017-05-24T12:20:49.985Z,16.26
2017-05-24T12:23:18.264Z,17.30
2017-05-24T12:25:46.583Z,15.90
2017-05-24T12:28:14.925Z,17.02
2017-05-24T12:30:43.212Z,17.52
2017-05-24T12:33:11.607Z,15.60
2017-05-24T12:35:39.883Z,15.02
2017-05-24T12:38:08.228Z,14.58
2017-05-24T12:40:36.556Z,15.96
2017-05-24T12:43:04.884Z,16.48
2017-05-24T12:45:33.259Z,15.00
2017-05-24T12:48:01.854Z,13.66
2017-05-24T12:50:30.156Z,15.50
2017-05-24T12:52:58.440Z,14.50
2017-05-24T12:55:26.753Z,14.22
2017-05-24T12:57:55.057Z,13.30
2017-05-24T13:00:23.404Z,14.36
2017-05-24T13:02:51.716Z,14.42
2017-05-24T13:05:19.997Z,14.66
2017-05-24T13:07:48.353Z,14.16
2017-05-24T13:10:16.664Z,15.48
2017-05-24T13:12:45.057Z,14.26
2017-05-24T13:15:12.642Z,14.48
2017-05-24T13:17:40.944Z,13.70
2017-05-24T13:20:09.268Z,11.32
2017-05-24T13:22:37.548Z,13.96
2017-05-24T13:25:05.828Z,12.58
2017-05-24T13:27:34.361Z,10.76
2017-05-24T13:30:02.698Z,10.96
2017-05-24T13:32:30.981Z,10.58
2017-05-24T13:34:59.301Z,10.38
2017-05-24T13:37:27.616Z,8.70
2017-05-24T13:39:55.917Z,9.38
2017-05-24T13:42:24.345Z,9.58
2017-05-24T13:44:52.636Z,8.52
2017-05-24T13:47:20.928Z,8.56
2017-05-24T13:49:49.404Z,9.78
2017-05-24T13:52:17.713Z,8.92
2017-05-24T13:54:45.992Z,7.98
2017-05-24T13:57:14.316Z,9.10
2017-05-24T13:59:42.596Z,9.38
2017-05-24T14:02:10.880Z,7.12
2017-05-24T14:04:39.200Z,9.44
2017-05-24T14:07:07.481Z,8.64
2017-05-24T14:09:35.755Z,7.98
2017-05-24T14:12:05.212Z,7.60
2017-05-24T14:14:33.496Z,8.44
2017-05-24T14:17:01.816Z,7.94
2017-05-24T14:19:30.193Z,7.58
2017-05-24T14:21:58.571Z,8.06
2017-05-24T14:24:26.849Z,6.52
2017-05-24T14:26:55.176Z,7.28
2017-05-24T14:29:23.560Z,8.62
2017-05-24T14:31:51.832Z,7.74
2017-05-24T14:34:20.189Z,9.10
2017-05-24T14:36:48.480Z,8.30
2017-05-24T14:39:16.760Z,8.74
2017-05-24T14:41:46.744Z,9.64
2017-05-24T14:44:15.072Z,9.02
2017-05-24T14:46:43.446Z,7.32
2017-05-24T14:49:11.757Z,8.56
2017-05-24T14:51:40.104Z,11.28
2017-05-24T14:54:08.434Z,8.96
2017-05-24T14:56:36.722Z,10.54
2017-05-24T14:59:05.040Z,10.24
2017-05-24T15:01:33.545Z,10.58
2017-05-24T15:04:01.855Z,9.76
2017-05-24T15:06:30.180Z,9.80
2017-05-24T15:08:58.504Z,9.50
2017-05-24T15:11:26.783Z,10.06
2017-05-24T15:13:55.093Z,9.32
2017-05-24T15:16:23.587Z,8.44
2017-05-24T15:18:51.972Z,9.02
2017-05-24T15:21:20.249Z,7.90
2017-05-24T15:23:48.619Z,8.80
2017-05-24T15:26:17.004Z,7.98
2017-05-24T15:28:45.313Z,8.86
2017-05-24T15:31:13.660Z,8.28
2017-05-24T15:33:42.139Z,8.28
2017-05-24T15:36:10.417Z,6.58
2017-05-24T15:38:38.697Z,7.30
2017-05-24T15:41:07.080Z,8.24
2017-05-24T15:43:35.447Z,7.02
2017-05-24T15:46:03.763Z,7.48
2017-05-24T15:48:32.092Z,6.64
2017-05-24T15:51:00.379Z,5.32
2017-05-24T15:53:28.651Z,6.16
2017-05-24T15:55:57.036Z,5.54
2017-05-24T15:58:25.313Z,6.30
2017-05-24T16:00:53.593Z,5.66
2017-05-24T16:03:21.917Z,6.00
2017-05-24T16:05:50.213Z,5.96
2017-05-24T16:08:18.488Z,6.70
2017-05-24T16:10:46.804Z,5.22
2017-05-24T16:13:15.112Z,6.54
2017-05-24T16:15:43.483Z,5.30
2017-05-24T16:18:11.964Z,5.02
2017-05-24T16:20:40.249Z,5.52
2017-05-24T16:23:08.527Z,4.90
2017-05-24T16:25:36.831Z,5.26
2017-05-24T16:28:05.182Z,5.30
2017-05-24T16:30:33.505Z,4.62
2017-05-24T16:33:01.837Z,4.76
2017-05-24T16:35:30.237Z,4.92
2017-05-24T16:37:58.548Z,5.00
2017-05-24T16:40:26.836Z,4.80
2017-05-24T16:42:55.354Z,5.18
2017-05-24T16:45:23.632Z,5.16
2017-05-24T16:47:51.913Z,5.80
2017-05-24T16:50:20.488Z,5.10
2017-05-24T16:52:48.760Z,5.20
2017-05-24T16:55:17.051Z,4.32
2017-05-24T16:57:46.136Z,5.58
2017-05-24T17:00:14.421Z,4.70
2017-05-24T17:02:42.897Z,5.88
2017-05-24T17:05:11.220Z,5.40
2017-05-24T17:07:39.499Z,5.30
2017-05-24T17:10:07.824Z,4.48
2017-05-24T17:12:36.205Z,5.04
2017-05-24T17:15:04.700Z,5.24
2017-05-24T17:17:33.068Z,4.46
2017-05-24T17:20:01.367Z,5.20
2017-05-24T17:22:29.772Z,5.30
2017-05-24T17:24:58.057Z,4.98
2017-05-24T17:27:26.487Z,4.50
2017-05-24T17:29:54.866Z,4.80
2017-05-24T17:32:23.148Z,5.20
2017-05-24T17:34:51.465Z,4.88
2017-05-24T17:37:19.775Z,4.40
2017-05-24T17:39:48.080Z,4.04
2017-05-24T17:42:16.557Z,4.00
2017-05-24T17:44:44.841Z,4.90
2017-05-24T17:47:13.123Z,3.82
2017-05-24T17:49:41.594Z,4.24
2017-05-24T17:52:09.884Z,4.32
2017-05-24T17:54:38.161Z,3.48
2017-05-24T17:57:06.468Z,4.46
2017-05-24T17:59:34.795Z,4.48
2017-05-24T18:02:03.181Z,4.24
2017-05-24T18:04:31.456Z,5.02
2017-05-24T18:06:59.761Z,4.74
2017-05-24T18:09:28.063Z,5.38
2017-05-24T18:11:56.489Z,5.06
2017-05-24T18:14:24.814Z,5.66
2017-05-24T18:16:53.149Z,5.68
2017-05-24T18:19:21.525Z,5.34
2017-05-24T18:21:49.900Z,5.04
2017-05-24T18:24:18.184Z,4.80
2017-05-24T18:26:46.565Z,6.06
2017-05-24T18:29:15.040Z,5.98
2017-05-24T18:31:43.425Z,5.94
2017-05-24T18:34:11.702Z,5.48
2017-05-24T18:36:40.023Z,7.24
2017-05-24T18:39:08.358Z,7.20
2017-05-24T18:41:36.637Z,6.32
2017-05-24T18:44:05.164Z,6.16
2017-05-24T18:46:33.450Z,5.48
2017-05-24T18:49:01.783Z,6.38
2017-05-24T18:51:30.096Z,5.36
2017-05-24T18:53:58.373Z,6.90
2017-05-24T18:56:26.699Z,7.12
2017-05-24T18:58:55.076Z,7.60
2017-05-24T19:01:23.352Z,6.84
2017-05-24T19:03:51.832Z,6.94
2017-05-24T19:06:20.216Z,7.46
2017-05-24T19:08:48.508Z,5.73
2017-05-24T19:11:16.829Z,5.95
2017-05-24T19:13:45.108Z,6.48
2017-05-24T19:16:13.533Z,5.60
2017-05-24T19:18:42.047Z,7.45
2017-05-24T19:21:10.336Z,5.52
2017-05-24T19:23:38.625Z,5.40
2017-05-24T19:26:07.108Z,4.80
2017-05-24T19:28:35.392Z,4.75
2017-05-24T19:31:04.544Z,4.70
2017-05-24T19:33:32.865Z,4.35
2017-05-24T19:36:01.151Z,4.25
2017-05-24T19:38:29.435Z,3.97
2017-05-24T19:40:57.821Z,3.30
2017-05-24T19:43:26.106Z,3.12
2017-05-24T19:45:54.481Z,3.40
2017-05-24T19:48:22.832Z,4.27
2017-05-24T19:50:51.134Z,3.33
2017-05-24T19:53:19.621Z,3.05
2017-05-24T19:55:48.008Z,3.17
2017-05-24T19:58:16.296Z,3.22
2017-05-24T20:00:44.617Z,2.75
2017-05-24T20:03:13.012Z,2.92
2017-05-24T20:05:41.308Z,2.70
2017-05-24T20:08:09.870Z,2.88
2017-05-24T20:10:38.237Z,2.73
2017-05-24T20:13:06.521Z,1.98
2017-05-24T20:15:34.884Z,2.40
2017-05-24T20:18:03.284Z,3.17
2017-05-24T20:20:31.564Z,3.18
2017-05-24T20:22:59.946Z,2.87
2017-05-24T20:25:28.241Z,2.93
2017-05-24T20:27:56.532Z,3.07
2017-05-24T20:30:24.881Z,3.15
2017-05-24T20:32:53.161Z,3.07
2017-05-24T20:35:21.641Z,2.42
2017-05-24T20:37:49.932Z,3.13
2017-05-24T20:40:18.220Z,3.30
2017-05-24T20:42:46.675Z,2.30
2017-05-24T20:45:14.955Z,2.87
2017-05-24T20:47:43.328Z,3.47
2017-05-24T20:50:11.677Z,3.07
2017-05-24T20:52:39.990Z,3.45
2017-05-24T20:55:08.279Z,3.27
2017-05-24T20:57:36.748Z,3.30
2017-05-24T21:00:05.039Z,3.07
2017-05-24T21:02:33.506Z,3.07
2017-05-24T21:05:01.976Z,2.98
2017-05-24T21:07:30.471Z,3.13
2017-05-24T21:09:59.935Z,3.22
2017-05-24T21:12:28.971Z,3.72
2017-05-24T21:14:57.637Z,3.37
2017-05-24T21:17:25.977Z,4.17
2017-05-24T21:19:54.877Z,4.08
2017-05-24T21:22:23.462Z,4.00
2017-05-24T21:24:52.044Z,4.22
2017-05-24T21:27:21.753Z,4.10
2017-05-24T21:29:50.416Z,3.45
2017-05-24T21:32:19.000Z,3.67
2017-05-24T21:34:47.329Z,4.10
2017-05-24T21:37:15.621Z,4.33
2017-05-24T21:39:43.898Z,3.48
2017-05-24T21:42:12.204Z,4.07
2017-05-24T21:44:40.556Z,3.48
2017-05-24T21:47:08.851Z,3.80
2017-05-24T21:49:37.336Z,3.50
2017-05-24T21:52:05.612Z,3.75
2017-05-24T21:54:33.978Z,4.10
2017-05-24T21:57:02.388Z,3.52
2017-05-24T21:59:30.663Z,4.18
2017-05-24T22:01:58.944Z,4.38
2017-05-24T22:04:27.265Z,4.45
2017-05-24T22:06:55.539Z,4.22
2017-05-24T22:09:23.822Z,4.83
2017-05-24T22:11:52.423Z,4.22
2017-05-24T22:14:20.706Z,4.40
2017-05-24T22:16:49.080Z,5.15
2017-05-24T22:19:17.457Z,4.70
2017-05-24T22:21:45.837Z,9.15
2017-05-24T22:24:14.222Z,4.30
2017-05-24T22:26:42.496Z,4.98
2017-05-24T22:29:10.876Z,6.02
2017-05-24T22:31:39.180Z,4.97
2017-05-24T22:34:07.496Z,4.37
2017-05-24T22:36:35.817Z,4.85
2017-05-24T22:39:04.138Z,4.33
2017-05-24T22:41:32.425Z,4.70
2017-05-24T22:43:59.964Z,4.55
2017-05-24T22:46:28.295Z,4.90
2017-05-24T22:48:56.593Z,4.73
2017-05-24T22:51:24.909Z,4.62
2017-05-24T22:53:53.209Z,5.12
2017-05-24T22:56:21.505Z,5.38
2017-05-24T22:58:49.851Z,5.78
2017-05-24T23:01:18.149Z,6.07
2017-05-24T23:03:46.433Z,6.37
2017-05-24T23:06:15.190Z,5.67
2017-05-24T23:08:43.481Z,5.60
2017-05-24T23:13:46.574Z,5.90
2017-05-24T23:16:14.871Z,5.42
2017-05-24T23:18:43.162Z,5.78
2017-05-24T23:21:11.706Z,6.37
2017-05-24T23:23:40.012Z,5.65
2017-05-24T23:26:08.300Z,5.87
2017-05-24T23:28:36.848Z,6.13
2017-05-24T23:31:05.147Z,5.60
2017-05-24T23:33:33.433Z,5.77
2017-05-24T23:36:02.081Z,6.38
2017-05-24T23:38:30.371Z,6.98
2017-05-24T23:40:58.664Z,7.87
2017-05-24T23:43:26.985Z,6.15
2017-05-24T23:45:55.278Z,6.73
2017-05-24T23:48:23.572Z,6.10
2017-05-24T23:50:51.901Z,6.05
2017-05-24T23:53:20.218Z,6.45
2017-05-24T23:55:48.507Z,7.90
2017-05-24T23:58:16.842Z,7.53
